Ironton, Minnesota
Current Conditions -  °F | °C
As of 10:20 PM on Sunday 23 Nov 2014 (Local Time) from KBRD Reporting Station
Overcast Overcast  
Wind Chill: 21°   Ceiling: 1400
Heat Index: 31°   Visibility: 10mi
Dew Point: 27°   Wind: 13mph
Humidity: 85%   Direction: 320°NW
Pressure: 29.38"   Gusts: NA
Location:  46.48°N, 93.98°W
Report Text: KBRD 240420Z AUTO 32011KT 10SM OVC014 M01/M03 A2938 RMK AO2 T10061028
Loading
Personal Weather Stations






























Interactive Weather Map New forecast layout! Learn more

10-Day Weather Forecast

Advertisements
Track Severe Weather on mobile